createdAt,value
2022-10-12T00:02:06.368Z,57.49
2022-10-12T00:04:38.649Z,57.41
2022-10-12T00:07:10.925Z,57.51
2022-10-12T00:09:43.270Z,57.49
2022-10-12T00:12:15.486Z,57.51
2022-10-12T00:14:47.793Z,57.48
2022-10-12T00:17:20.084Z,57.50
2022-10-12T00:19:52.793Z,57.62
2022-10-12T00:22:25.038Z,57.49
2022-10-12T00:24:57.400Z,57.58
2022-10-12T00:27:29.691Z,57.66
2022-10-12T00:30:02.055Z,57.72
2022-10-12T00:32:34.737Z,57.82
2022-10-12T00:35:07.932Z,57.82
2022-10-12T00:37:40.385Z,57.86
2022-10-12T00:40:14.763Z,57.79
2022-10-12T00:42:49.253Z,57.79
2022-10-12T00:45:24.837Z,57.91
2022-10-12T00:48:00.491Z,57.77
2022-10-12T00:50:35.520Z,57.82
2022-10-12T00:53:11.040Z,57.95
2022-10-12T00:55:50.820Z,57.87
2022-10-12T00:58:23.620Z,58.07
2022-10-12T01:00:56.049Z,58.05
2022-10-12T01:03:28.468Z,58.08
2022-10-12T01:06:01.632Z,58.00
2022-10-12T01:08:34.401Z,57.97
2022-10-12T01:11:06.872Z,58.03
2022-10-12T01:13:39.268Z,58.15
2022-10-12T01:16:20.943Z,58.09
2022-10-12T01:19:04.038Z,58.23
2022-10-12T01:21:42.165Z,58.26
2022-10-12T01:24:40.842Z,58.29
2022-10-12T01:27:28.946Z,58.43
2022-10-12T01:30:22.039Z,58.38
2022-10-12T01:33:09.984Z,58.34
2022-10-12T01:35:50.487Z,58.33
2022-10-12T01:38:35.967Z,58.45
2022-10-12T01:41:09.759Z,58.48
2022-10-12T01:43:43.967Z,58.57
2022-10-12T01:46:42.541Z,58.55
2022-10-12T01:49:17.189Z,58.63
2022-10-12T01:52:08.880Z,58.66
2022-10-12T01:54:54.918Z,58.77
2022-10-12T01:57:36.223Z,58.78
2022-10-12T02:00:11.751Z,58.79
2022-10-12T02:02:55.337Z,58.79
2022-10-12T02:05:35.597Z,58.81
2022-10-12T02:08:14.404Z,58.84
2022-10-12T02:10:54.864Z,58.90
2022-10-12T02:13:31.501Z,58.66
2022-10-12T02:16:08.460Z,58.75
2022-10-12T02:18:44.260Z,58.99
2022-10-12T02:21:21.912Z,58.95
2022-10-12T02:23:57.791Z,59.07
2022-10-12T02:26:31.504Z,59.05
2022-10-12T02:29:07.725Z,59.10
2022-10-12T02:31:47.167Z,59.03
2022-10-12T02:34:23.799Z,59.14
2022-10-12T02:37:06.432Z,59.08
2022-10-12T02:39:46.550Z,59.10
2022-10-12T02:42:23.134Z,59.24
2022-10-12T02:44:56.986Z,59.25
2022-10-12T02:47:33.959Z,59.32
2022-10-12T02:50:09.373Z,59.29
2022-10-12T02:52:42.080Z,59.29
2022-10-12T02:55:15.075Z,59.27
2022-10-12T02:57:47.548Z,59.25
2022-10-12T03:00:21.211Z,59.41
2022-10-12T03:02:53.544Z,59.37
2022-10-12T03:05:25.858Z,59.41
2022-10-12T03:07:58.177Z,59.42
2022-10-12T03:10:30.507Z,59.42
2022-10-12T03:13:02.816Z,59.47
2022-10-12T03:15:35.092Z,59.41
2022-10-12T03:18:07.550Z,59.55
2022-10-12T03:20:39.872Z,59.50
2022-10-12T03:23:12.261Z,59.57
2022-10-12T03:25:44.625Z,59.50
2022-10-12T03:28:16.990Z,59.58
2022-10-12T03:30:49.429Z,59.57
2022-10-12T03:33:21.687Z,59.68
2022-10-12T03:35:54.124Z,59.58
2022-10-12T03:38:26.397Z,59.72
2022-10-12T03:41:01.784Z,59.73
2022-10-12T03:43:38.533Z,59.68
2022-10-12T03:46:10.777Z,59.71
2022-10-12T03:48:43.424Z,59.73
2022-10-12T03:51:15.785Z,59.79
2022-10-12T03:53:48.084Z,59.77
2022-10-12T03:56:20.324Z,59.87
2022-10-12T03:58:52.601Z,59.89
2022-10-12T04:01:25.859Z,59.79
2022-10-12T04:03:58.370Z,59.73
2022-10-12T04:06:30.556Z,59.82
2022-10-12T04:09:02.825Z,59.93
2022-10-12T04:11:35.185Z,59.94
2022-10-12T04:14:07.377Z,59.98
2022-10-12T04:16:39.639Z,59.97
2022-10-12T04:19:14.204Z,60.04
2022-10-12T04:21:46.493Z,59.98
2022-10-12T04:24:18.781Z,60.09
2022-10-12T04:26:51.060Z,60.20
2022-10-12T04:29:23.422Z,60.15
2022-10-12T04:31:55.581Z,60.15
2022-10-12T04:34:27.905Z,60.17
2022-10-12T04:37:00.109Z,60.21
2022-10-12T04:39:32.648Z,60.07
2022-10-12T04:42:06.995Z,60.20
2022-10-12T04:44:39.220Z,60.31
2022-10-12T04:47:11.445Z,60.32
2022-10-12T04:49:43.923Z,60.43
2022-10-12T04:52:16.157Z,60.31
2022-10-12T04:54:48.571Z,60.41
2022-10-12T04:57:20.993Z,60.38
2022-10-12T04:59:53.293Z,60.37
2022-10-12T05:02:25.496Z,60.48
2022-10-12T05:04:58.240Z,60.51
2022-10-12T05:07:30.415Z,60.49
2022-10-12T05:10:02.713Z,60.41
2022-10-12T05:12:35.067Z,60.56
2022-10-12T05:15:09.080Z,60.11
2022-10-12T05:17:41.448Z,60.35
2022-10-12T05:20:15.150Z,60.48
2022-10-12T05:22:47.384Z,60.66
2022-10-12T05:25:20.684Z,60.76
2022-10-12T05:27:52.878Z,60.77
2022-10-12T05:30:25.472Z,60.73
2022-10-12T05:32:57.764Z,60.76
2022-10-12T05:35:30.084Z,60.71
2022-10-12T05:38:02.504Z,60.89
2022-10-12T05:40:34.827Z,61.01
2022-10-12T05:43:07.165Z,61.04
2022-10-12T05:45:39.656Z,61.14
2022-10-12T05:48:11.916Z,61.27
2022-10-12T05:50:44.128Z,61.24
2022-10-12T05:53:16.372Z,61.38
2022-10-12T05:55:56.880Z,61.32
2022-10-12T05:58:30.813Z,61.37
2022-10-12T06:01:10.464Z,61.43
2022-10-12T06:03:42.972Z,61.41
2022-10-12T06:06:15.192Z,61.40
2022-10-12T06:08:47.489Z,61.33
2022-10-12T06:11:19.873Z,61.37
2022-10-12T06:13:52.109Z,61.50
2022-10-12T06:16:24.381Z,61.56
2022-10-12T06:18:56.643Z,61.52
2022-10-12T06:21:33.481Z,61.66
2022-10-12T06:24:07.506Z,61.78
2022-10-12T06:26:39.801Z,61.80
2022-10-12T06:29:12.491Z,61.87
2022-10-12T06:31:48.930Z,61.79
2022-10-12T06:34:22.899Z,61.93
2022-10-12T06:36:59.473Z,61.79
2022-10-12T06:39:33.872Z,62.05
2022-10-12T06:42:07.781Z,62.04
2022-10-12T06:44:41.006Z,62.27
2022-10-12T06:47:13.353Z,62.20
2022-10-12T06:49:45.570Z,62.19
2022-10-12T06:52:17.833Z,62.25
2022-10-12T06:54:50.044Z,62.24
2022-10-12T06:57:22.320Z,62.35
2022-10-12T06:59:54.535Z,62.32
2022-10-12T07:02:26.822Z,62.25
2022-10-12T07:04:59.058Z,62.25
2022-10-12T07:07:32.873Z,62.36
2022-10-12T07:10:07.599Z,62.46
2022-10-12T07:12:40.534Z,62.36
2022-10-12T07:15:14.145Z,62.59
2022-10-12T07:17:46.410Z,62.49
2022-10-12T07:20:18.784Z,62.79
2022-10-12T07:22:51.071Z,62.72
2022-10-12T07:25:23.365Z,62.63
2022-10-12T07:27:55.683Z,62.84
2022-10-12T07:30:27.975Z,62.61
2022-10-12T07:33:00.197Z,62.80
2022-10-12T07:35:32.509Z,62.77
2022-10-12T07:38:05.380Z,62.37
2022-10-12T07:40:38.227Z,62.63
2022-10-12T07:43:16.109Z,62.75
2022-10-12T07:45:48.977Z,62.98
2022-10-12T07:48:21.260Z,62.86
2022-10-12T07:50:53.541Z,62.77
2022-10-12T07:53:25.813Z,62.91
2022-10-12T07:56:04.278Z,62.88
2022-10-12T07:58:36.660Z,62.88
2022-10-12T08:01:11.345Z,62.77
2022-10-12T08:03:43.734Z,62.82
2022-10-12T08:06:18.314Z,62.92
2022-10-12T08:08:50.907Z,62.90
2022-10-12T08:11:23.399Z,62.97
2022-10-12T08:13:56.381Z,63.02
2022-10-12T08:16:28.573Z,62.94
2022-10-12T08:19:02.727Z,62.98
2022-10-12T08:21:34.989Z,62.93
2022-10-12T08:24:09.513Z,62.79
2022-10-12T08:26:42.041Z,62.86
2022-10-12T08:29:14.227Z,62.89
2022-10-12T08:31:46.514Z,62.88
2022-10-12T08:34:18.868Z,62.81
2022-10-12T08:36:51.981Z,62.83
2022-10-12T08:39:24.367Z,62.83
2022-10-12T08:42:08.134Z,62.75
2022-10-12T08:45:07.915Z,62.63
2022-10-12T08:47:44.033Z,62.61
2022-10-12T08:50:31.101Z,62.70
2022-10-12T08:53:12.905Z,62.57
2022-10-12T08:55:47.315Z,62.59
2022-10-12T08:58:21.934Z,62.47
2022-10-12T09:00:58.624Z,62.39
2022-10-12T09:03:44.288Z,62.32
2022-10-12T09:06:19.965Z,62.20
2022-10-12T09:09:06.377Z,62.21
2022-10-12T09:11:53.186Z,62.20
2022-10-12T09:14:28.703Z,62.13
2022-10-12T09:17:04.001Z,62.02
2022-10-12T09:19:42.009Z,61.86
2022-10-12T09:22:19.683Z,61.91
2022-10-12T09:24:53.087Z,61.73
2022-10-12T09:27:25.448Z,61.65
2022-10-12T09:30:03.342Z,61.62
2022-10-12T09:33:00.776Z,61.46
2022-10-12T09:35:33.670Z,61.56
2022-10-12T09:38:07.392Z,61.41
2022-10-12T09:40:40.396Z,61.29
2022-10-12T09:43:12.931Z,61.21
2022-10-12T09:45:45.259Z,61.08
2022-10-12T09:48:20.858Z,61.06
2022-10-12T09:50:55.801Z,61.12
2022-10-12T09:53:36.154Z,61.09
2022-10-12T09:56:16.081Z,60.77
2022-10-12T09:58:55.341Z,60.80
2022-10-12T10:01:29.911Z,60.84
2022-10-12T10:04:15.285Z,60.64
2022-10-12T10:06:48.494Z,60.55
2022-10-12T10:09:32.316Z,60.27
2022-10-12T10:12:22.976Z,60.16
2022-10-12T10:14:57.919Z,59.92
2022-10-12T10:17:33.787Z,59.90
2022-10-12T10:20:23.795Z,59.71
2022-10-12T10:22:56.368Z,59.70
2022-10-12T10:25:29.515Z,59.43
2022-10-12T10:28:30.023Z,59.48
2022-10-12T10:31:04.961Z,59.43
2022-10-12T10:33:36.397Z,59.29
2022-10-12T10:36:14.955Z,59.27
2022-10-12T10:38:59.218Z,59.28
2022-10-12T10:41:39.624Z,59.26
2022-10-12T10:44:25.651Z,59.01
2022-10-12T10:47:02.401Z,59.03
2022-10-12T10:49:42.386Z,59.11
2022-10-12T10:52:25.076Z,59.02
2022-10-12T10:55:20.340Z,58.80
2022-10-12T10:58:02.306Z,58.68
2022-10-12T11:00:39.698Z,58.55
2022-10-12T11:06:08.429Z,58.25
2022-10-12T11:08:42.858Z,58.14
2022-10-12T11:11:19.951Z,57.98
2022-10-12T11:13:59.348Z,57.67
2022-10-12T11:16:35.537Z,57.62
2022-10-12T11:19:21.200Z,57.56
2022-10-12T11:21:57.186Z,57.35
2022-10-12T11:24:34.746Z,56.87
2022-10-12T11:27:13.724Z,57.13
2022-10-12T11:29:54.119Z,56.94
2022-10-12T11:32:40.012Z,56.73
2022-10-12T11:35:18.729Z,56.77
2022-10-12T11:37:55.207Z,56.59
2022-10-12T11:40:55.620Z,56.49
2022-10-12T11:43:23.888Z,56.43
2022-10-12T11:46:03.021Z,56.46
2022-10-12T11:48:40.895Z,56.22
2022-10-12T11:51:14.177Z,56.07
2022-10-12T11:53:56.231Z,56.01
2022-10-12T11:56:32.719Z,55.94
2022-10-12T11:59:11.853Z,55.77
2022-10-12T12:01:53.993Z,55.66
2022-10-12T12:04:48.275Z,55.70
2022-10-12T12:07:46.476Z,55.52
2022-10-12T12:11:03.747Z,55.33
2022-10-12T12:13:35.991Z,55.13
2022-10-12T12:16:31.874Z,54.99
2022-10-12T12:19:40.175Z,54.92
2022-10-12T12:22:28.839Z,54.90
2022-10-12T12:25:20.246Z,54.77
2022-10-12T12:27:56.058Z,54.58
2022-10-12T12:30:34.396Z,54.54
2022-10-12T12:33:26.462Z,54.54
2022-10-12T12:36:01.797Z,54.47
2022-10-12T12:38:36.888Z,54.40
2022-10-12T12:41:12.872Z,54.38
2022-10-12T12:44:06.168Z,54.28
2022-10-12T12:50:37.579Z,53.91
2022-10-12T12:53:18.355Z,53.97
2022-10-12T12:56:17.483Z,53.96
2022-10-12T12:59:03.552Z,54.00
2022-10-12T13:01:57.293Z,53.95
2022-10-12T13:05:01.547Z,54.01
2022-10-12T13:07:52.055Z,53.87
2022-10-12T13:10:39.645Z,53.97
2022-10-12T13:14:27.169Z,53.94
2022-10-12T13:20:16.997Z,53.91
2022-10-12T13:22:51.556Z,53.91
2022-10-12T13:25:33.849Z,53.90
2022-10-12T13:28:13.811Z,53.88
2022-10-12T13:30:52.553Z,53.89
2022-10-12T13:33:32.610Z,53.91
2022-10-12T13:36:09.787Z,53.94
2022-10-12T13:38:42.201Z,54.00
2022-10-12T13:41:17.390Z,54.01
2022-10-12T13:43:55.584Z,53.94
2022-10-12T13:46:45.623Z,53.95
2022-10-12T13:49:21.490Z,54.00
2022-10-12T13:51:55.884Z,54.03
2022-10-12T13:54:36.017Z,53.99
2022-10-12T13:57:20.149Z,54.03
2022-10-12T13:59:57.811Z,54.01
2022-10-12T14:02:33.916Z,54.10
2022-10-12T14:05:16.933Z,53.96
2022-10-12T14:07:50.841Z,54.06
2022-10-12T14:10:25.755Z,54.08
2022-10-12T14:12:57.740Z,54.15
2022-10-12T14:15:36.081Z,54.06
2022-10-12T14:18:38.500Z,54.08
2022-10-12T14:21:17.517Z,54.23
2022-10-12T14:23:51.979Z,54.27
2022-10-12T14:26:30.562Z,54.15
2022-10-12T14:29:23.063Z,54.19
2022-10-12T14:31:57.090Z,54.08
2022-10-12T14:34:37.753Z,54.09
2022-10-12T14:37:26.514Z,54.12
2022-10-12T14:40:03.327Z,54.09
2022-10-12T14:42:37.059Z,54.05
2022-10-12T14:45:25.777Z,54.20
2022-10-12T14:47:59.752Z,54.29
2022-10-12T14:50:34.054Z,54.27
2022-10-12T14:53:11.608Z,54.30
2022-10-12T14:55:44.464Z,54.38
2022-10-12T14:58:19.668Z,54.49
2022-10-12T15:00:51.958Z,54.46
2022-10-12T15:03:24.160Z,54.52
2022-10-12T15:05:56.359Z,54.55
2022-10-12T15:08:28.625Z,54.66
2022-10-12T15:11:00.779Z,54.72
2022-10-12T15:13:32.928Z,54.68
2022-10-12T15:16:11.359Z,54.80
2022-10-12T15:18:43.449Z,54.74
2022-10-12T15:21:16.277Z,54.84
2022-10-12T15:23:48.737Z,54.86
2022-10-12T15:26:21.029Z,54.86
2022-10-12T15:28:53.171Z,54.90
2022-10-12T15:31:25.365Z,54.91
2022-10-12T15:33:57.592Z,54.97
2022-10-12T15:36:29.728Z,54.96
2022-10-12T15:39:01.847Z,55.14
2022-10-12T15:41:34.328Z,55.09
2022-10-12T15:44:07.320Z,55.30
2022-10-12T15:46:39.489Z,55.22
2022-10-12T15:49:15.121Z,55.31
2022-10-12T15:51:51.746Z,55.42
2022-10-12T15:54:23.931Z,55.52
2022-10-12T15:56:56.087Z,55.49
2022-10-12T15:59:28.437Z,55.65
2022-10-12T16:02:00.931Z,55.72
2022-10-12T16:04:33.092Z,55.76
2022-10-12T16:07:05.219Z,55.84
2022-10-12T16:09:37.396Z,55.85
2022-10-12T16:12:09.778Z,55.92
2022-10-12T16:14:41.994Z,55.94
2022-10-12T16:17:14.538Z,55.92
2022-10-12T16:19:46.945Z,55.98
2022-10-12T16:22:19.181Z,55.97
2022-10-12T16:24:51.372Z,56.05
2022-10-12T16:27:23.468Z,56.07
2022-10-12T16:29:56.446Z,56.20
2022-10-12T16:32:28.685Z,56.12
2022-10-12T16:35:00.829Z,56.15
2022-10-12T16:37:33.155Z,56.18
2022-10-12T16:40:07.262Z,56.29
2022-10-12T16:42:39.387Z,56.24
2022-10-12T16:45:12.553Z,56.24
2022-10-12T16:47:44.695Z,56.26
2022-10-12T16:50:17.012Z,56.37
2022-10-12T16:52:49.403Z,56.43
2022-10-12T16:55:22.187Z,56.52
2022-10-12T16:57:54.340Z,56.44
2022-10-12T17:00:26.786Z,56.50
2022-10-12T17:02:58.906Z,56.63
2022-10-12T17:05:31.177Z,56.57
2022-10-12T17:08:03.429Z,56.58
2022-10-12T17:10:35.588Z,56.58
2022-10-12T17:13:07.989Z,56.81
2022-10-12T17:15:43.796Z,56.68
2022-10-12T17:18:16.214Z,56.80
2022-10-12T17:20:50.743Z,56.79
2022-10-12T17:23:25.110Z,56.93
2022-10-12T17:26:02.500Z,56.88
2022-10-12T17:28:37.581Z,56.89
2022-10-12T17:31:11.902Z,56.92
2022-10-12T17:33:44.285Z,57.01
2022-10-12T17:36:16.846Z,57.00
2022-10-12T17:38:53.319Z,57.10
2022-10-12T17:41:26.298Z,57.00
2022-10-12T17:43:59.003Z,57.09
2022-10-12T17:46:31.164Z,57.23
2022-10-12T17:49:03.875Z,57.30
2022-10-12T17:51:36.121Z,57.28
2022-10-12T17:54:08.435Z,57.22
2022-10-12T17:56:40.605Z,57.29
2022-10-12T17:59:14.941Z,57.47
2022-10-12T18:01:47.484Z,57.62
2022-10-12T18:04:20.139Z,57.51
2022-10-12T18:06:52.412Z,57.53
2022-10-12T18:09:24.797Z,57.60
2022-10-12T18:11:56.963Z,57.62
2022-10-12T18:14:29.239Z,57.79
2022-10-12T18:17:01.561Z,57.68
2022-10-12T18:19:33.807Z,57.83
2022-10-12T18:22:06.008Z,57.62
2022-10-12T18:24:38.239Z,57.73
2022-10-12T18:27:10.429Z,57.82
2022-10-12T18:29:42.719Z,57.75
2022-10-12T18:32:14.983Z,57.96
2022-10-12T18:34:47.545Z,58.01
2022-10-12T18:37:19.797Z,57.92
2022-10-12T18:39:52.286Z,57.96
2022-10-12T18:42:24.455Z,57.93
2022-10-12T18:44:56.937Z,57.99
2022-10-12T18:47:29.186Z,57.91
2022-10-12T18:50:01.548Z,58.02
2022-10-12T18:52:34.134Z,58.07
2022-10-12T18:55:07.184Z,58.17
2022-10-12T18:57:40.253Z,58.19
2022-10-12T19:00:15.398Z,58.06
2022-10-12T19:02:45.951Z,58.08
2022-10-12T19:05:18.362Z,58.23
2022-10-12T19:07:50.637Z,58.36
2022-10-12T19:10:23.072Z,58.35
2022-10-12T19:12:55.248Z,58.37
2022-10-12T19:15:28.653Z,58.40
2022-10-12T19:18:00.840Z,58.47
2022-10-12T19:20:33.611Z,58.55
2022-10-12T19:23:05.860Z,58.57
2022-10-12T19:25:41.108Z,58.60
2022-10-12T19:28:13.343Z,58.52
2022-10-12T19:30:45.601Z,58.73
2022-10-12T19:33:17.755Z,58.48
2022-10-12T19:35:50.197Z,58.66
2022-10-12T19:38:22.842Z,58.69
2022-10-12T19:40:55.045Z,58.57
2022-10-12T19:43:27.860Z,58.67
2022-10-12T19:46:04.947Z,58.74
2022-10-12T19:48:37.348Z,58.91
2022-10-12T19:51:12.169Z,58.87
2022-10-12T19:53:44.607Z,58.88
2022-10-12T19:56:20.961Z,58.97
2022-10-12T19:58:55.451Z,58.86
2022-10-12T20:01:29.760Z,58.98
2022-10-12T20:04:02.694Z,59.13
2022-10-12T20:06:35.251Z,59.09
2022-10-12T20:09:09.061Z,59.01
2022-10-12T20:11:42.279Z,58.89
2022-10-12T20:14:14.548Z,59.04
2022-10-12T20:16:46.921Z,59.00
2022-10-12T20:19:19.309Z,59.13
2022-10-12T20:21:51.804Z,59.22
2022-10-12T20:24:25.075Z,59.33
2022-10-12T20:26:57.646Z,59.21
2022-10-12T20:29:29.931Z,59.29
2022-10-12T20:32:02.340Z,59.21
2022-10-12T20:34:35.062Z,59.34
2022-10-12T20:37:07.368Z,59.24
2022-10-12T20:39:39.612Z,59.31
2022-10-12T20:42:12.081Z,59.26
2022-10-12T20:44:44.616Z,59.35
2022-10-12T20:47:17.766Z,59.31
2022-10-12T20:49:50.321Z,59.37
2022-10-12T20:52:22.646Z,59.38
2022-10-12T20:54:55.282Z,59.25
2022-10-12T20:57:27.561Z,59.39
2022-10-12T20:59:59.737Z,59.46
2022-10-12T21:02:33.519Z,59.48
2022-10-12T21:05:06.036Z,59.51
2022-10-12T21:07:38.521Z,59.58
2022-10-12T21:10:12.240Z,59.60
2022-10-12T21:12:44.363Z,59.61
2022-10-12T21:15:16.930Z,59.60
2022-10-12T21:17:49.228Z,59.63
2022-10-12T21:20:21.590Z,59.58
2022-10-12T21:22:53.870Z,59.69
2022-10-12T21:25:26.445Z,59.84
2022-10-12T21:27:58.724Z,59.67
2022-10-12T21:30:30.927Z,59.63
2022-10-12T21:33:02.984Z,59.67
2022-10-12T21:35:35.545Z,59.81
2022-10-12T21:38:08.145Z,59.86
2022-10-12T21:40:40.378Z,59.78
2022-10-12T21:43:12.698Z,59.77
2022-10-12T21:45:44.843Z,59.84
2022-10-12T21:48:16.983Z,59.76
2022-10-12T21:50:49.164Z,59.94
2022-10-12T21:53:21.373Z,59.73
2022-10-12T21:55:53.904Z,60.00
2022-10-12T21:58:26.078Z,59.79
2022-10-12T22:01:08.638Z,59.85
2022-10-12T22:03:40.979Z,59.83
2022-10-12T22:06:18.033Z,59.89
2022-10-12T22:08:55.120Z,59.88
2022-10-12T22:11:29.674Z,59.93
2022-10-12T22:14:03.988Z,59.89
2022-10-12T22:16:37.898Z,59.83
2022-10-12T22:19:14.451Z,59.96
2022-10-12T22:21:47.208Z,59.94
2022-10-12T22:24:19.513Z,59.96
2022-10-12T22:26:51.928Z,60.12
2022-10-12T22:29:24.111Z,59.96
2022-10-12T22:31:56.282Z,59.95
2022-10-12T22:34:28.681Z,60.06
2022-10-12T22:37:00.948Z,60.04
2022-10-12T22:39:33.191Z,59.93
2022-10-12T22:42:05.371Z,59.98
2022-10-12T22:44:37.482Z,60.08
2022-10-12T22:47:09.943Z,60.09
2022-10-12T22:49:42.148Z,60.11
2022-10-12T22:52:14.490Z,60.13
2022-10-12T22:54:50.039Z,60.12
2022-10-12T22:57:22.196Z,60.15
2022-10-12T22:59:54.457Z,60.05
2022-10-12T23:02:26.624Z,60.15
2022-10-12T23:04:58.761Z,60.13
2022-10-12T23:07:30.880Z,60.21
2022-10-12T23:10:03.092Z,60.17
2022-10-12T23:12:36.039Z,60.32
2022-10-12T23:15:09.893Z,60.25
2022-10-12T23:17:42.094Z,60.40
2022-10-12T23:20:14.745Z,60.31
2022-10-12T23:22:47.622Z,60.39
2022-10-12T23:25:19.977Z,60.35
2022-10-12T23:27:52.232Z,60.43
2022-10-12T23:30:24.529Z,60.34
2022-10-12T23:32:56.723Z,60.40
2022-10-12T23:35:31.380Z,60.39
2022-10-12T23:38:03.739Z,60.43
2022-10-12T23:40:37.833Z,60.41
2022-10-12T23:43:11.808Z,60.38
2022-10-12T23:45:45.715Z,60.39
2022-10-12T23:48:17.968Z,60.40
2022-10-12T23:50:52.076Z,60.44
2022-10-12T23:53:25.955Z,60.47
2022-10-12T23:55:58.136Z,60.53
2022-10-12T23:58:30.370Z,60.59
